• Join FlightAware (Why Join?)
  • Login
  • US Flag 
02:52AM EDT


 

Airport Tracker/Info


-or-


 

Live Flight TrackerFlight Track Log ✈ EJA941 ✈ 09-May-2013 ✈ KSDL - KRYY

Flight Track Log - Related Links

Times and Time Zones

All times are in EDT time to prevent confusion due to time zone crossing. See the EJA941 flight status page for this flight to view local times or setup timezone preferences in your user account.

Time Position Orientation Groundspeed Altitude Reporting Facility
EDT Latitude Longitude Course Direction KTS MPH feet Rate Location/Type
03:13PM 33.6000 -111.9333 299° West 188 216 2,600  Level Phoenix TRACON
03:13PM 33.6236 -111.9850 299° West 224 258 5,500 1,980 Climbing Albuquerque Center
03:14PM 33.6753 -111.9769 North 239 275 6,600 1,800 Climbing Albuquerque Center
03:16PM 33.7206 -111.9208 46° Northeast 238 274 9,300 2,160 Climbing Albuquerque Center
03:17PM 33.7172 -111.8017 92° East 304 350 11,100 1,620 Climbing Albuquerque Center
03:18PM 33.7108 -111.6847 94° East 342 394 12,700 1,680 Climbing Albuquerque Center
03:19PM 33.7039 -111.5617 94° East 366 421 14,600 1,740 Climbing Albuquerque Center
03:20PM 33.6969 -111.4356 94° East 377 434 16,400 1,680 Climbing Albuquerque Center
03:21PM 33.6903 -111.3033 93° East 392 451 18,100 1,800 Climbing Albuquerque Center
03:22PM 33.7150 -111.1411 80° East 412 474 20,200 1,860 Climbing Albuquerque Center
03:23PM 33.7469 -111.0053 74° East 422 486 22,000 1,740 Climbing Albuquerque Center
03:24PM 33.7783 -110.8625 75° East 436 502 23,800 1,740 Climbing Albuquerque Center
03:25PM 33.8119 -110.7167 74° East 447 514 25,700 1,800 Climbing Albuquerque Center
03:26PM 33.8456 -110.5658 75° East 461 531 27,600 2,220 Climbing Albuquerque Center
03:27PM 33.8797 -110.4150 75° East 466 536 30,300 2,460 Climbing Albuquerque Center
03:28PM 33.9136 -110.2628 75° East 468 539 32,800 1,800 Climbing Albuquerque Center
03:29PM 33.9539 -110.0775 75° East 473 544 34,000 1,800 Climbing Albuquerque Center
03:30PM 33.9886 -109.9175 75° East 488 562 36,500 1,860 Climbing Albuquerque Center
03:31PM 34.0239 -109.7528 75° East 493 567 37,900 1,500 Climbing Albuquerque Center
03:32PM 34.0631 -109.5711 75° East 498 573 39,600 1,440 Climbing Albuquerque Center
03:33PM 34.0944 -109.4206 76° East 492 566 40,900 660 Climbing Albuquerque Center
03:34PM 34.1250 -109.2831 75° East 487 560 41,000  Climbing Albuquerque Center
03:35PM 34.1667 -109.0883 75° East 494 568 41,000  Level Albuquerque Center
03:36PM 34.2022 -108.9181 76° East 509 586 41,000  Level Albuquerque Center
03:37PM 34.2383 -108.7444 76° East 524 603 41,000  Level Albuquerque Center
03:38PM 34.2731 -108.5700 76° East 532 612 41,000  Level Albuquerque Center
03:39PM 34.3119 -108.3828 76° East 536 617 41,000  Level Albuquerque Center
03:40PM 34.3483 -108.2075 76° East 536 617 41,000  Level Albuquerque Center
03:41PM 34.3836 -108.0319 76° East 538 619 41,000  Level Albuquerque Center
03:42PM 34.4181 -107.8561 77° East 538 619 41,000  Level Albuquerque Center
03:43PM 34.4606 -107.6447 76° East 540 621 41,000  Level Albuquerque Center
03:44PM 34.4947 -107.4683 77° East 540 621 41,000  Level Albuquerque Center
03:45PM 34.5289 -107.2917 77° East 540 621 41,000  Level Albuquerque Center
03:46PM 34.5631 -107.1131 77° East 545 627 41,000  Level Albuquerque Center
03:47PM 34.5969 -106.9342 77° East 548 631 41,000  Level Albuquerque Center
03:49PM 34.6292 -106.7564 78° East 546 628 41,000  Level Albuquerque Center
03:50PM 34.6697 -106.5450 77° East 544 626 41,000  Level Albuquerque Center
03:51PM 34.7022 -106.3678 77° East 543 625 41,000  Level Albuquerque Center
03:52PM 34.7339 -106.1939 77° East 542 624 41,000  Level Albuquerque Center
03:53PM 34.7736 -105.9856 77° East 540 621 41,000  Level Albuquerque Center
03:54PM 34.8047 -105.8031 78° East 543 625 41,000  Level Albuquerque Center
03:55PM 34.8367 -105.6233 78° East 541 623 41,000  Level Albuquerque Center
03:56PM 34.8694 -105.4436 77° East 540 621 41,000  Level Albuquerque Center
03:57PM 34.9025 -105.2600 78° East 547 629 41,000  Level Albuquerque Center
03:58PM 34.9328 -105.0797 78° East 543 625 41,000  Level Albuquerque Center
03:59PM 34.9650 -104.8986 78° East 542 624 41,000  Level Albuquerque Center
04:00PM 35.0011 -104.6886 78° East 540 621 41,000  Level Albuquerque Center
04:01PM 35.0314 -104.5083 78° East 540 621 41,000  Level Albuquerque Center
04:02PM 35.0611 -104.3278 79° East 542 624 41,000  Level Albuquerque Center
04:03PM 35.0967 -104.1314 77° East 545 627 41,000  Level Albuquerque Center
04:04PM 35.1256 -103.9511 79° East 542 624 41,000  Level Albuquerque Center
04:05PM 35.1564 -103.7597 79° East 542 624 41,000  Level Albuquerque Center
04:06PM 35.1839 -103.5772 80° East 543 625 41,000  Level Albuquerque Center
04:07PM 35.1906 -103.3900 87° East 546 628 41,000  Level Albuquerque Center
04:08PM 35.1964 -103.2039 88° East 545 627 41,000  Level Albuquerque Center
04:09PM 35.2019 -103.0169 88° East 546 628 41,000  Level Albuquerque Center
04:10PM 35.2078 -102.8114 88° East 549 632 41,000  Level Albuquerque Center
04:11PM 35.2131 -102.6239 88° East 552 635 41,000  Level Albuquerque Center
04:12PM 35.2181 -102.4367 88° East 553 636 41,000  Level Albuquerque Center
04:13PM 35.2225 -102.2492 88° East 552 635 41,000  Level Albuquerque Center
04:14PM 35.2269 -102.0628 88° East 551 634 41,000  Level Albuquerque Center
04:15PM 35.2317 -101.8531 88° East 549 632 41,000  Level Albuquerque Center
04:16PM 35.2364 -101.6656 88° East 549 632 41,000  Level Albuquerque Center
04:17PM 35.2461 -101.4761 86° East 552 635 41,000  Level Albuquerque Center
04:18PM 35.2533 -101.2986 87° East 550 633 41,000  Level Albuquerque Center
04:19PM 35.2622 -101.0747 87° East 551 634 41,000  Level Albuquerque Center
04:21PM 35.2703 -100.8889 87° East 550 633 41,000  Level Albuquerque Center
04:22PM 35.2778 -100.7033 87° East 549 632 41,000  Level Albuquerque Center
04:23PM 35.2853 -100.5056 87° East 548 631 41,000  Level Albuquerque Center
04:24PM 35.2925 -100.3206 87° East 546 628 41,000  Level Albuquerque Center
04:25PM 35.2989 -100.1364 88° East 544 626 41,000  Level Albuquerque Center
04:26PM 35.3053 -99.9514 88° East 544 626 41,000  Level Albuquerque Center
04:27PM 35.3117 -99.7678 88° East 542 624 41,000  Level Albuquerque Center
04:28PM 35.3181 -99.5456 88° East 546 628 41,000  Level Albuquerque Center
04:29PM 35.3228 -99.3600 88° East 547 629 41,000  Level Albuquerque Center
04:29PM 35.3258 -99.2533 88° East 543 625 41,000  Level Fort Worth Center
04:30PM 35.3286 -99.0600 89° East 549 632 41,000  Level Fort Worth Center
04:31PM 35.3350 -98.8742 88° East 549 632 41,000  Level Fort Worth Center
04:32PM 35.3392 -98.6858 88° East 549 632 41,000  Level Fort Worth Center
04:33PM 35.3431 -98.4953 89° East 549 632 41,000  Level Fort Worth Center
04:34PM 35.3464 -98.3322 89° East 544 626 41,000  Level Fort Worth Center
04:35PM 35.3497 -98.1414 89° East 550 633 41,000  Level Fort Worth Center
04:36PM 35.3528 -97.9506 89° East 550 633 41,000  Level Fort Worth Center
04:37PM 35.3556 -97.7622 89° East 550 633 41,000  Level Fort Worth Center
04:38PM 35.3561 -97.5511 90° East 557 641 41,000  Level Fort Worth Center
04:39PM 35.3728 -97.3447 84° East 576 663 41,000  Level Fort Worth Center
04:40PM 35.3642 -97.1539 93° East 570 656 41,000  Level Fort Worth Center
04:41PM 35.3700 -96.9631 88° East 570 656 41,000  Level Fort Worth Center
04:42PM 35.3711 -96.7669 90° East 570 656 41,000  Level Fort Worth Center
04:43PM 35.3742 -96.5733 89° East 570 656 41,000  Level Fort Worth Center
04:44PM 35.3789 -96.3747 88° East 570 656 41,000  Level Fort Worth Center
04:45PM 35.3814 -96.1736 89° East 576 663 41,000  Level Fort Worth Center
04:46PM 35.3833 -95.9750 89° East 576 663 41,000  Level Fort Worth Center
04:47PM 35.3856 -95.7967 89° East 576 663 41,000  Level Fort Worth Center
04:48PM 35.3869 -95.5981 89° East 581 669 41,000  Level Fort Worth Center
04:50PM 35.3875 -95.2925 90° East 591 680 41,000  Level Memphis Center
04:51PM 35.3869 -95.0889 90° East 591 680 41,000  Level Memphis Center
04:52PM 35.3881 -94.8903 90° East 591 680 41,000  Level Memphis Center
04:53PM 35.3869 -94.6864 90° East 591 680 41,000  Level Memphis Center
04:54PM 35.3875 -94.4853 90° East 591 680 41,000  Level Memphis Center
04:55PM 35.3858 -94.2817 91° East 591 680 41,000  Level Memphis Center
04:56PM 35.3733 -94.0797 94° East 591 680 41,000 -660 Level Memphis Center
04:57PM 35.3581 -93.8856 95° East 584 672 39,800 -1,020 Descending Memphis Center
04:58PM 35.3464 -93.6994 94° East 569 655 39,000 -420 Descending Memphis Center
04:59PM 35.3328 -93.5028 95° East 569 655 39,000  Level Memphis Center
05:00PM 35.3172 -93.2886 95° East 576 663 39,000  Level Memphis Center
05:01PM 35.3008 -93.0844 96° East 582 670 39,000  Level Memphis Center
05:02PM 35.2861 -92.9033 96° East 597 687 39,000  Level Memphis Center
05:03PM 35.2711 -92.7044 95° East 597 687 39,000  Level Memphis Center
05:04PM 35.2519 -92.4981 96° East 597 687 39,000  Level Memphis Center
05:05PM 35.2325 -92.2764 96° East 597 687 39,000  Level Memphis Center
05:06PM 35.2167 -92.0753 95° East 597 687 39,000  Level Memphis Center
05:07PM 35.1983 -91.8742 96° East 597 687 39,000  Level Memphis Center
05:08PM 35.1800 -91.6731 96° East 597 687 39,000  Level Memphis Center
05:09PM 35.1611 -91.4694 96° East 597 687 39,000  Level Memphis Center
05:10PM 35.1458 -91.2714 95° East 592 681 39,000  Level Memphis Center
05:11PM 35.1264 -91.0681 97° East 598 688 39,000  Level Memphis Center
05:12PM 35.1064 -90.8647 97° East 598 688 39,000  Level Memphis Center
05:13PM 35.0864 -90.6617 97° East 598 688 39,000  Level Memphis Center
05:14PM 35.0678 -90.4839 97° East 598 688 39,000  Level Memphis Center
05:15PM 35.0469 -90.2783 97° East 598 688 39,000  Level Memphis Center
05:16PM 35.0278 -90.0806 97° East 598 688 39,000  Level Memphis Center
05:17PM 35.0128 -89.8806 95° East 598 688 39,000  Level Memphis Center
05:18PM 34.9969 -89.6497 95° East 604 695 39,000  Level Memphis Center
05:19PM 34.9747 -89.4497 98° East 611 703 39,000  Level Memphis Center
05:20PM 34.9586 -89.2497 96° East 605 696 39,000  Level Memphis Center
05:21PM 34.9419 -89.0475 96° East 595 685 39,000  Level Memphis Center
05:22PM 34.9250 -88.8475 96° East 595 685 39,000  Level Memphis Center
05:23PM 34.9103 -88.6706 96° East 595 685 39,000  Level Memphis Center
05:24PM 34.8906 -88.4583 96° East 590 679 39,000  Level Memphis Center
05:25PM 34.8747 -88.2611 96° East 583 671 39,000 -180 Level Memphis Center
05:26PM 34.8592 -88.0819 96° East 583 671 38,700 -720 Descending Memphis Center
05:27PM 34.8411 -87.8953 97° East 567 652 37,600 -1,440 Descending Memphis Center
05:28PM 34.8267 -87.7133 95° East 545 627 35,900 -1,860 Descending Memphis Center
05:30PM 34.7844 -87.2911 97° East 505 581 31,300 -1,440 Descending Atlanta Center
05:31PM 34.7681 -87.1136 96° East 510 587 31,000 -180 Descending Atlanta Center
05:32PM 34.7514 -86.9358 96° East 515 593 31,000  Level Atlanta Center
05:33PM 34.7219 -86.7631 102° East 525 604 31,000  Level Atlanta Center
05:34PM 34.6778 -86.5900 107° East 525 604 31,000  Level Atlanta Center
05:35PM 34.6311 -86.4194 108° East 530 610 31,000  Level Atlanta Center
05:36PM 34.5842 -86.2489 108° East 535 616 31,000 -1,320 Level Atlanta Center
05:37PM 34.5369 -86.0839 109° East 529 609 28,400 -2,700 Descending Atlanta Center
05:38PM 34.4917 -85.9164 108° East 523 602 25,600 -2,580 Descending Atlanta Center
05:39PM 34.4519 -85.7719 108° East 517 595 23,300 -2,460 Descending Atlanta Center
05:40PM 34.4061 -85.6150 109° East 504 580 20,700 -2,700 Descending Atlanta Center
05:41PM 34.3644 -85.4506 107° East 477 549 17,900 -2,520 Descending Atlanta Center
05:42PM 34.3742 -85.3197 85° East 426 490 15,700 -2,160 Descending Atlanta Center
05:43PM 34.3711 -85.1939 92° East 385 443 13,600 -1,980 Descending Atlanta Center
05:44PM 34.3219 -85.0928 120° Southeast 344 396 11,800 -1,740 Descending Atlanta Center
05:45PM 34.2686 -84.9989 124° Southeast 339 390 10,200 -1,560 Descending Atlanta Center
05:46PM 34.2253 -84.9131 121° Southeast 328 377 8,700 -1,140 Descending Atlanta Center
05:47PM 34.1694 -84.8447 135° Southeast 286 329 8,000 -600 Descending Atlanta Center
05:48PM 34.1281 -84.7842 130° Southeast 274 315 7,600 -900 Descending Atlanta Center
05:49PM 34.0992 -84.7136 116° Southeast 246 283 6,300 -1,500 Descending Atlanta Center
05:50PM 34.0725 -84.6456 115° Southeast 222 255 4,700 -1,500 Descending Atlanta Center
05:51PM 34.0706 -84.5781 92° East 206 237 3,300 -1,080 Descending Atlanta Center
05:52PM 34.0689 -84.5153 92° East 193 222 2,600 -480 Descending Atlanta Center
05:53PM 34.0333 -84.5100 173° South 114 131 2,400 -420 Descending Atlanta Center
05:54PM 34.0122 -84.5500 238° Southwest 109 125 1,800 -600 Descending Atlanta Center